Time;durP1;ratioP1;P1;durP2;ratioP2;P2;SDS_P1;SDS_P2;PMS_P1;PMS_P2;Temp;Humidity;BMP_temperature;BMP_pressure;BME280_temperature;BME280_humidity;BME280_pressure;Samples;Min_cycle;Max_cycle;Signal;HPM_P1;HPM_P2
2022/05/12 00:00:06;;;;;;;12.32;5.38;;;;;;;16.10;56.57;95117.19;4142412;28;20050;-53
2022/05/12 00:02:08;;;;;;;6.13;4.70;;;;;;;16.07;56.57;95124.69;4142494;28;20050;-52
2022/05/12 00:04:10;;;;;;;8.82;5.30;;;;;;;16.05;56.56;95127.50;4141940;28;20054;-54
2022/05/12 00:06:12;;;;;;;8.60;5.10;;;;;;;16.06;56.83;95115.09;4142530;28;20104;-54
2022/05/12 00:08:14;;;;;;;7.18;5.05;;;;;;;16.02;56.79;95113.81;4140914;28;20112;-52
2022/05/12 00:10:18;;;;;;;6.47;4.90;;;;;;;15.96;56.86;95121.47;4142418;28;20124;-51
2022/05/12 00:12:20;;;;;;;7.18;5.20;;;;;;;15.91;57.13;95110.63;4142471;28;20582;-53
2022/05/12 00:14:22;;;;;;;11.80;4.63;;;;;;;15.88;57.27;95116.28;4142300;28;20458;-53
2022/05/12 00:16:24;;;;;;;5.85;4.55;;;;;;;15.83;57.21;95113.38;4141309;28;20124;-52
2022/05/12 00:18:26;;;;;;;8.70;5.22;;;;;;;15.80;57.85;95116.34;4131783;28;20151;-56
2022/05/12 00:20:28;;;;;;;7.68;5.03;;;;;;;15.72;58.08;95119.91;4142059;28;20478;-54
2022/05/12 00:22:30;;;;;;;7.13;5.03;;;;;;;15.68;58.15;95115.97;4140621;28;20073;-51
2022/05/12 00:24:31;;;;;;;6.25;4.57;;;;;;;15.64;58.45;95121.75;4140517;28;20407;-51
2022/05/12 00:26:35;;;;;;;7.80;4.95;;;;;;;15.58;58.61;95118.03;4142440;28;20103;-52
2022/05/12 00:28:37;;;;;;;9.57;4.90;;;;;;;15.51;58.06;95120.56;4142193;28;20092;-55
2022/05/12 00:30:39;;;;;;;8.80;4.80;;;;;;;15.51;57.70;95115.28;4141970;28;20112;-52
2022/05/12 00:32:45;;;;;;;6.20;4.13;;;;;;;15.51;56.63;95128.50;4142217;28;20122;-52
2022/05/12 00:34:47;;;;;;;7.03;4.43;;;;;;;15.55;56.99;95113.94;4142014;28;20065;-54
2022/05/12 00:36:49;;;;;;;7.28;4.22;;;;;;;15.59;57.15;95113.56;4142424;28;20046;-53
2022/05/12 00:38:51;;;;;;;6.38;4.18;;;;;;;15.59;57.64;95118.84;4140680;28;20665;-56
2022/05/12 00:40:52;;;;;;;8.60;4.72;;;;;;;15.60;57.63;95115.22;4140683;28;20115;-53
2022/05/12 00:43:03;;;;;;;10.20;4.90;;;;;;;15.60;57.71;95112.59;4142084;28;20053;-54
2022/05/12 00:45:05;;;;;;;7.75;4.90;;;;;;;15.61;57.93;95108.94;4140458;28;20063;-54
2022/05/12 00:47:07;;;;;;;5.82;4.35;;;;;;;15.66;57.98;95109.19;4142216;28;20054;-57
2022/05/12 00:49:21;;;;;;;6.22;4.85;;;;;;;15.63;57.96;95109.56;4141354;28;20050;-55
2022/05/12 00:51:36;;;;;;;8.60;4.95;;;;;;;15.59;58.36;95109.09;4140792;28;20115;-61
2022/05/12 00:53:38;;;;;;;8.25;4.93;;;;;;;15.49;58.70;95108.56;4139081;28;20120;-55
2022/05/12 00:55:42;;;;;;;8.95;4.95;;;;;;;15.47;59.13;95111.38;4142141;28;20057;-55
2022/05/12 00:57:52;;;;;;;7.50;5.00;;;;;;;15.42;58.72;95118.97;4140206;28;20758;-53
2022/05/12 00:59:54;;;;;;;7.90;4.85;;;;;;;15.34;59.54;95121.72;4141896;28;20063;-55
2022/05/12 01:01:57;;;;;;;9.82;5.43;;;;;;;15.29;59.51;95124.91;4142142;28;20053;-54
2022/05/12 01:04:00;;;;;;;6.20;4.68;;;;;;;15.29;59.14;95126.69;4141342;28;20081;-53
2022/05/12 01:06:03;;;;;;;7.07;4.65;;;;;;;15.25;58.91;95128.88;4140249;28;20057;-55
2022/05/12 01:08:05;;;;;;;6.50;4.93;;;;;;;15.17;59.00;95128.94;4140193;28;20085;-52
2022/05/12 01:10:09;;;;;;;7.78;4.50;;;;;;;15.11;58.95;95132.28;4141447;28;20100;-54
2022/05/12 01:12:11;;;;;;;6.47;4.72;;;;;;;15.03;59.23;95130.50;4140217;28;20438;-54
2022/05/12 01:14:12;;;;;;;8.50;4.95;;;;;;;14.94;58.82;95131.56;4141283;28;20461;-55
2022/05/12 01:16:38;;;;;;;8.75;4.50;;;;;;;14.83;59.33;95134.63;4143666;28;20058;-54
2022/05/12 01:18:40;;;;;;;8.43;5.28;;;;;;;14.81;60.56;95131.34;4133027;28;20176;-55
2022/05/12 01:20:42;;;;;;;7.95;5.93;;;;;;;14.86;60.53;95134.25;4143770;28;20053;-55
2022/05/12 01:22:51;;;;;;;11.55;6.25;;;;;;;14.88;60.13;95129.63;4144472;28;20241;-54
2022/05/12 01:24:53;;;;;;;10.77;7.07;;;;;;;14.89;59.83;95128.66;4142221;28;20757;-50
2022/05/12 01:26:54;;;;;;;10.45;6.60;;;;;;;14.88;59.80;95134.91;4144424;28;20120;-55
2022/05/12 01:28:56;;;;;;;9.57;6.95;;;;;;;14.88;59.82;95133.09;4144231;28;20108;-52
2022/05/12 01:30:59;;;;;;;11.05;6.78;;;;;;;14.91;59.65;95139.84;4144709;28;20050;-52
2022/05/12 01:33:01;;;;;;;7.28;6.35;;;;;;;14.92;59.65;95141.47;4134691;28;20054;-53
2022/05/12 01:35:04;;;;;;;9.30;6.90;;;;;;;14.90;59.58;95135.56;4161036;28;20179;-53
2022/05/12 01:37:07;;;;;;;11.10;7.03;;;;;;;14.89;59.92;95133.94;4160829;28;20057;-55
2022/05/12 01:39:09;;;;;;;10.30;7.15;;;;;;;14.87;59.95;95136.72;4158813;28;20061;-54
2022/05/12 01:41:11;;;;;;;9.52;6.70;;;;;;;14.91;59.56;95137.22;4160356;28;20057;-56
2022/05/12 01:43:14;;;;;;;9.10;7.13;;;;;;;14.93;59.67;95141.31;4150681;28;20065;-53
2022/05/12 01:45:16;;;;;;;9.80;6.72;;;;;;;14.91;59.88;95138.03;4144365;28;20475;-54
2022/05/12 01:47:18;;;;;;;8.32;6.22;;;;;;;14.96;59.78;95134.84;4144083;28;20452;-56
2022/05/12 01:49:20;;;;;;;8.77;5.93;;;;;;;14.98;59.66;95139.97;4131768;28;20046;-51
2022/05/12 01:51:22;;;;;;;7.93;5.60;;;;;;;14.98;59.54;95135.50;4144144;28;20522;-55
2022/05/12 01:53:23;;;;;;;10.23;5.57;;;;;;;15.01;59.45;95132.50;4142522;28;20062;-54
2022/05/12 01:55:27;;;;;;;9.23;5.93;;;;;;;15.00;59.11;95137.97;4144173;28;20057;-55
2022/05/12 01:57:29;;;;;;;10.45;6.10;;;;;;;15.01;58.88;95136.97;4143529;28;20846;-53
2022/05/12 01:59:31;;;;;;;7.75;5.85;;;;;;;14.96;58.86;95137.50;4143742;28;20057;-54
2022/05/12 02:01:33;;;;;;;9.85;5.03;;;;;;;14.94;58.74;95131.56;4143893;28;20061;-56
2022/05/12 02:03:35;;;;;;;8.45;5.75;;;;;;;14.92;59.78;95141.47;4143478;28;20058;-53
2022/05/12 02:05:38;;;;;;;7.30;5.43;;;;;;;14.91;60.02;95139.84;4144145;28;20353;-53
2022/05/12 02:07:41;;;;;;;7.73;4.97;;;;;;;14.89;60.11;95144.47;4143703;28;20045;-56
2022/05/12 02:09:44;;;;;;;7.13;5.53;;;;;;;14.84;59.91;95144.16;4142116;28;20402;-53
2022/05/12 02:11:45;;;;;;;9.40;5.00;;;;;;;14.82;59.84;95148.78;4144063;28;20461;-53
2022/05/12 02:13:47;;;;;;;11.13;6.07;;;;;;;14.84;59.74;95144.16;4143439;28;20057;-54
2022/05/12 02:15:48;;;;;;;8.18;5.15;;;;;;;14.86;59.38;95150.09;4143750;28;20115;-53
2022/05/12 02:17:50;;;;;;;8.40;4.88;;;;;;;14.91;59.25;95142.50;4143670;28;20108;-54
2022/05/12 02:19:52;;;;;;;8.27;4.85;;;;;;;14.87;58.52;95144.66;4142126;28;20072;-52
2022/05/12 02:22:00;;;;;;;5.22;4.18;;;;;;;14.83;58.44;95150.44;4140026;28;20050;-55
2022/05/12 02:24:03;;;;;;;10.35;4.70;;;;;;;14.77;58.24;95156.41;4142339;28;20050;-54
2022/05/12 02:26:04;;;;;;;6.13;4.47;;;;;;;14.74;58.67;95150.50;4143286;28;20488;-54
2022/05/12 02:28:06;;;;;;;6.60;4.57;;;;;;;14.74;59.30;95153.13;4143651;28;20184;-53
2022/05/12 02:30:10;;;;;;;10.02;5.10;;;;;;;14.71;59.93;95156.13;4143517;28;20104;-54
2022/05/12 02:32:12;;;;;;;7.95;5.03;;;;;;;14.65;59.95;95156.00;4143747;28;20053;-54
2022/05/12 02:34:14;;;;;;;6.45;4.72;;;;;;;14.59;59.69;95149.59;4143266;28;20145;-56
2022/05/12 02:36:15;;;;;;;8.70;4.72;;;;;;;14.51;59.78;95155.69;4143270;28;20050;-54
2022/05/12 02:38:17;;;;;;;7.65;4.97;;;;;;;14.45;60.10;95160.81;4139966;28;20061;-52
2022/05/12 02:40:22;;;;;;;9.82;4.82;;;;;;;14.42;60.09;95159.34;4142676;28;20154;-54
2022/05/12 02:42:24;;;;;;;5.82;4.68;;;;;;;14.47;59.78;95151.75;4143439;28;20058;-50
2022/05/12 02:44:25;;;;;;;8.55;5.15;;;;;;;14.54;60.13;95157.16;4143083;28;20077;-54
2022/05/12 02:46:27;;;;;;;9.02;5.15;;;;;;;14.58;59.34;95153.19;4143322;28;20199;-54
2022/05/12 02:48:35;;;;;;;9.85;5.10;;;;;;;14.55;60.09;95161.47;4142700;28;20050;-51
2022/05/12 02:50:37;;;;;;;7.60;4.70;;;;;;;14.52;60.08;95148.63;4143413;28;20120;-55
2022/05/12 02:52:38;;;;;;;7.00;4.57;;;;;;;14.44;59.92;95159.19;4143329;28;20133;-52
2022/05/12 02:54:40;;;;;;;8.75;5.30;;;;;;;14.33;60.50;95155.94;4141604;28;20053;-52
2022/05/12 02:56:42;;;;;;;8.93;4.63;;;;;;;14.32;60.38;95154.28;4142808;28;20058;-55
2022/05/12 02:58:44;;;;;;;6.55;4.45;;;;;;;14.30;60.89;95155.44;4143442;28;20065;-53
2022/05/12 03:00:46;;;;;;;15.70;5.85;;;;;;;14.26;61.35;95160.25;4143163;28;20383;-54
2022/05/12 03:02:48;;;;;;;12.07;5.47;;;;;;;14.19;61.35;95161.09;4141817;28;20065;-54
2022/05/12 03:04:49;;;;;;;13.25;5.57;;;;;;;14.09;61.80;95171.84;4143232;28;20124;-54
2022/05/12 03:06:52;;;;;;;14.35;5.55;;;;;;;14.02;61.63;95168.22;4143203;28;20145;-54
2022/05/12 03:08:53;;;;;;;9.15;5.70;;;;;;;14.00;61.70;95160.47;4140264;28;20050;-54
2022/05/12 03:10:55;;;;;;;13.65;5.85;;;;;;;13.96;61.84;95164.47;4142830;28;20049;-54
2022/05/12 03:12:57;;;;;;;10.57;5.82;;;;;;;13.99;62.62;95172.00;4141651;28;20046;-53
2022/05/12 03:15:00;;;;;;;10.02;5.63;;;;;;;14.03;62.17;95175.94;4143053;28;20116;-55
2022/05/12 03:17:03;;;;;;;15.90;5.93;;;;;;;14.03;62.29;95170.69;4142952;28;20057;-55
2022/05/12 03:19:04;;;;;;;11.50;6.07;;;;;;;14.08;62.31;95172.81;4142790;28;20065;-55
2022/05/12 03:21:06;;;;;;;10.55;6.18;;;;;;;14.09;62.12;95174.47;4141428;28;20115;-54
2022/05/12 03:23:08;;;;;;;12.43;6.68;;;;;;;14.13;62.03;95173.97;4140700;28;20054;-54
2022/05/12 03:25:11;;;;;;;12.32;6.40;;;;;;;14.13;62.23;95176.59;4142931;28;20161;-54
2022/05/12 03:27:14;;;;;;;;;;;;;;;14.12;61.65;95182.03;4143114;28;20057;-53
2022/05/12 03:29:16;;;;;;;10.65;6.72;;;;;;;14.06;61.55;95185.31;4143007;28;19983;-53
2022/05/12 03:31:18;;;;;;;10.95;6.88;;;;;;;14.00;62.09;95188.63;4142458;28;20462;-53
2022/05/12 03:33:20;;;;;;;11.57;6.95;;;;;;;13.86;62.40;95193.59;4142565;28;20145;-54
2022/05/12 03:35:22;;;;;;;9.43;6.72;;;;;;;13.86;62.55;95200.69;4142880;28;20513;-56
2022/05/12 03:37:23;;;;;;;12.45;6.50;;;;;;;13.75;62.10;95204.47;4142623;28;20054;-51
2022/05/12 03:39:25;;;;;;;12.73;6.25;;;;;;;13.40;62.15;95206.47;4140898;28;20062;-52
2022/05/12 03:41:27;;;;;;;14.90;6.68;;;;;;;13.08;63.09;95207.22;4152619;28;20361;-54
2022/05/12 03:45:49;;;;;;;8.32;5.78;;;;;;;12.80;63.76;95204.00;4142708;28;20208;-53
2022/05/12 03:47:51;;;;;;;13.48;6.13;;;;;;;12.97;63.49;95210.13;4142392;28;20071;-54
2022/05/12 03:50:01;;;;;;;11.18;6.25;;;;;;;13.06;63.15;95217.09;4142254;28;20049;-53
2022/05/12 03:52:03;;;;;;;10.57;5.63;;;;;;;13.12;63.32;95208.56;4142564;28;20084;-55
2022/05/12 03:54:04;;;;;;;12.73;6.20;;;;;;;13.25;63.15;95213.31;4140949;28;20046;-51
2022/05/12 03:56:07;;;;;;;8.68;6.22;;;;;;;13.43;63.18;95208.75;4142183;28;20148;-53
2022/05/12 03:58:09;;;;;;;11.02;5.93;;;;;;;13.55;61.46;95211.91;4142693;28;20054;-53
2022/05/12 04:00:14;;;;;;;10.23;5.50;;;;;;;13.47;61.21;95217.97;4142553;28;20089;-51
2022/05/12 04:02:17;;;;;;;9.45;5.72;;;;;;;13.56;61.71;95215.34;4142691;28;20050;-54
2022/05/12 04:04:19;;;;;;;16.02;6.00;;;;;;;13.69;61.07;95218.31;4141845;28;20110;-52
2022/05/12 04:06:21;;;;;;;9.82;5.65;;;;;;;13.85;60.88;95220.09;4142192;28;20050;-53
2022/05/12 04:08:23;;;;;;;8.43;5.25;;;;;;;14.06;60.08;95216.94;4140963;28;20057;-54
2022/05/12 04:10:25;;;;;;;11.10;5.90;;;;;;;14.20;59.14;95218.91;4142275;28;20135;-55
2022/05/12 04:12:27;;;;;;;10.00;5.73;;;;;;;14.33;58.94;95219.19;4142518;28;20049;-54
2022/05/12 04:14:29;;;;;;;12.38;6.40;;;;;;;14.46;58.40;95226.56;4142187;28;20481;-55
2022/05/12 04:16:36;;;;;;;12.38;6.78;;;;;;;14.55;58.19;95216.84;4142240;28;20049;-55
2022/05/12 04:18:38;;;;;;;14.68;7.47;;;;;;;14.52;58.21;95217.16;4142189;28;20046;-53
2022/05/12 04:20:40;;;;;;;13.18;7.72;;;;;;;14.44;58.56;95219.81;4141951;28;20050;-53
2022/05/12 04:22:45;;;;;;;16.13;7.70;;;;;;;14.43;58.88;95211.09;4137519;28;20056;-54
2022/05/12 04:24:46;;;;;;;14.32;7.07;;;;;;;14.50;58.78;95221.78;4140794;28;20080;-52
2022/05/12 04:26:48;;;;;;;16.20;7.80;;;;;;;14.58;58.87;95218.31;4142108;28;20157;-52
2022/05/12 04:28:50;;;;;;;15.82;8.52;;;;;;;14.58;58.59;95218.31;4142617;28;20120;-54
2022/05/12 04:30:52;;;;;;;19.73;8.07;;;;;;;14.59;58.56;95219.97;4140698;28;20046;-52
2022/05/12 04:32:54;;;;;;;16.98;8.35;;;;;;;14.60;58.60;95221.59;4141998;28;20478;-53
2022/05/12 04:37:16;;;;;;;17.40;7.50;;;;;;;14.75;58.39;95217.22;4141889;28;20499;-53
2022/05/12 04:39:18;;;;;;;13.70;7.38;;;;;;;14.83;58.16;95224.31;4140272;28;20110;-51
2022/05/12 04:41:19;;;;;;;16.35;7.88;;;;;;;14.93;57.97;95222.28;4141976;28;20050;-55
2022/05/12 04:43:21;;;;;;;13.30;8.10;;;;;;;14.97;57.55;95228.84;4141933;28;20129;-54
2022/05/12 04:45:25;;;;;;;15.85;7.70;;;;;;;15.04;57.15;95228.97;4142256;28;20490;-51
2022/05/12 04:47:26;;;;;;;;;;;;;;;14.87;57.24;95236.16;4142448;28;20053;-54
2022/05/12 04:49:28;;;;;;;11.73;6.43;;;;;;;14.79;57.23;95234.34;4141503;28;19926;-53
2022/05/12 04:51:30;;;;;;;14.82;6.13;;;;;;;14.74;57.39;95240.16;4144292;28;20050;-57
2022/05/12 04:53:31;;;;;;;10.20;6.30;;;;;;;14.88;56.88;95238.59;4143550;28;20106;-53
2022/05/12 04:55:33;;;;;;;8.07;5.40;;;;;;;15.01;56.81;95243.31;4143638;28;20077;-53
2022/05/12 04:57:37;;;;;;;9.65;6.15;;;;;;;15.15;56.25;95244.41;4144962;28;20406;-55
2022/05/12 04:59:38;;;;;;;13.90;6.63;;;;;;;15.29;55.74;95238.41;4145008;28;20517;-54
2022/05/12 05:01:40;;;;;;;8.07;5.25;;;;;;;15.40;55.24;95244.25;4145096;28;20049;-52
2022/05/12 05:03:42;;;;;;;9.40;5.82;;;;;;;15.52;55.05;95241.03;4144596;28;20180;-53
2022/05/12 05:05:44;;;;;;;9.65;5.80;;;;;;;15.60;54.81;95236.69;4144750;28;20497;-53
2022/05/12 05:07:46;;;;;;;10.65;5.72;;;;;;;15.60;54.68;95234.06;4144887;28;20058;-54
2022/05/12 05:09:48;;;;;;;8.25;5.95;;;;;;;15.64;54.74;95236.16;4143354;28;20132;-55
2022/05/12 05:11:50;;;;;;;11.30;5.85;;;;;;;15.66;54.89;95246.53;4144704;28;20438;-54
2022/05/12 05:13:53;;;;;;;8.32;6.03;;;;;;;15.67;54.83;95248.19;4144588;28;20091;-53
2022/05/12 05:15:54;;;;;;;9.15;6.05;;;;;;;15.65;55.07;95244.91;4144611;28;20084;-55
2022/05/12 05:17:56;;;;;;;8.88;6.45;;;;;;;15.61;55.06;95239.13;4142893;28;20058;-50
2022/05/12 05:19:58;;;;;;;12.75;6.63;;;;;;;15.71;54.83;95249.47;4144258;28;20498;-52
2022/05/12 05:22:00;;;;;;;13.88;6.28;;;;;;;15.86;54.67;95247.72;4144264;28;20121;-53
2022/05/12 05:24:01;;;;;;;13.30;6.85;;;;;;;16.01;54.36;95246.94;4133121;28;20057;-53
2022/05/12 05:26:03;;;;;;;11.82;7.07;;;;;;;16.01;54.18;95244.31;4144420;28;20115;-52
2022/05/12 05:28:06;;;;;;;11.30;6.68;;;;;;;15.97;54.59;95246.47;4144266;28;20058;-52
2022/05/12 05:30:11;;;;;;;13.13;6.47;;;;;;;16.06;54.52;95241.94;4144567;28;20061;-51
2022/05/12 05:32:13;;;;;;;10.23;6.93;;;;;;;16.16;53.80;95245.97;4143487;28;20384;-53
2022/05/12 05:34:14;;;;;;;13.20;6.90;;;;;;;16.25;53.78;95235.31;4143552;28;20084;-53
2022/05/12 05:36:16;;;;;;;10.27;6.32;;;;;;;16.34;53.59;95242.16;4143921;28;20196;-53
2022/05/12 05:38:18;;;;;;;10.90;6.68;;;;;;;16.46;53.52;95234.63;4142987;28;20131;-54
2022/05/12 05:40:28;;;;;;;10.80;7.25;;;;;;;16.58;53.35;95238.41;4143985;28;20064;-53
2022/05/12 05:42:30;;;;;;;13.57;7.00;;;;;;;16.54;53.47;95245.06;4144245;28;20530;-53
2022/05/12 05:44:32;;;;;;;13.60;7.53;;;;;;;16.59;53.31;95243.53;4144227;28;20329;-54
2022/05/12 05:46:34;;;;;;;12.15;6.93;;;;;;;16.69;53.14;95242.44;4144354;28;20069;-55
2022/05/12 05:48:36;;;;;;;17.85;7.65;;;;;;;16.79;52.86;95251.72;4135408;28;20157;-55
2022/05/12 05:55:21;;;;;;;11.07;6.55;;;;;;;17.11;52.42;95247.06;4128361;28;20054;-51
2022/05/12 05:57:26;;;;;;;14.55;7.35;;;;;;;17.15;52.50;95242.22;4127994;28;20149;-53
2022/05/12 05:59:28;;;;;;;11.23;6.93;;;;;;;17.14;52.55;95245.88;4127870;28;20471;-55
2022/05/12 06:01:30;;;;;;;13.55;7.63;;;;;;;17.08;52.89;95247.44;4127326;28;20046;-54
2022/05/12 06:03:32;;;;;;;9.68;7.15;;;;;;;16.95;52.56;95248.09;4138057;28;20518;-56
2022/05/12 06:05:33;;;;;;;10.43;7.32;;;;;;;16.63;53.05;95245.81;4143955;28;20057;-54
2022/05/12 06:07:36;;;;;;;12.32;7.47;;;;;;;16.30;54.05;95244.34;4143965;28;20104;-50
2022/05/12 06:09:38;;;;;;;10.95;7.10;;;;;;;16.29;53.98;95257.75;4142462;28;20481;-55
2022/05/12 06:11:42;;;;;;;10.45;7.72;;;;;;;16.29;54.36;95248.00;4143844;28;20556;-54
2022/05/12 06:13:47;;;;;;;9.65;6.68;;;;;;;16.53;53.83;95249.56;4143895;28;20041;-54
2022/05/12 06:15:50;;;;;;;14.90;8.23;;;;;;;16.82;53.38;95242.66;4143769;28;20057;-54
2022/05/12 06:17:52;;;;;;;11.88;7.93;;;;;;;16.92;52.87;95248.47;4143394;28;20553;-54
2022/05/12 06:19:54;;;;;;;10.63;7.30;;;;;;;16.95;53.22;95249.91;4143474;28;20361;-55
2022/05/12 06:21:56;;;;;;;13.25;8.18;;;;;;;17.01;52.52;95243.88;4143451;28;20190;-56
2022/05/12 06:23:57;;;;;;;11.65;7.65;;;;;;;16.79;53.09;95246.44;4133595;28;20120;-51
2022/05/12 06:25:59;;;;;;;13.25;7.10;;;;;;;16.85;53.69;95244.09;4132221;28;20050;-59
2022/05/12 06:28:01;;;;;;;14.60;7.13;;;;;;;16.81;53.46;95245.47;4127320;28;20133;-53
2022/05/12 06:30:06;;;;;;;12.23;6.82;;;;;;;16.85;53.64;95247.56;4127421;28;20058;-54
2022/05/12 06:32:09;;;;;;;10.32;7.68;;;;;;;16.85;53.21;95244.91;4127067;28;20137;-55
2022/05/12 06:34:12;;;;;;;12.27;7.53;;;;;;;16.96;53.13;95251.56;4127092;28;20054;-55
2022/05/12 06:36:14;;;;;;;13.18;7.57;;;;;;;17.05;52.96;95249.63;4127136;28;20054;-56
2022/05/12 06:38:15;;;;;;;11.30;7.70;;;;;;;17.06;52.82;95240.69;4125667;28;20054;-54
2022/05/12 06:40:17;;;;;;;11.15;7.82;;;;;;;17.11;52.49;95241.75;4127888;28;20278;-54
2022/05/12 06:42:24;;;;;;;14.25;7.90;;;;;;;17.28;52.43;95242.38;4143223;28;20061;-56
2022/05/12 06:44:25;;;;;;;15.05;8.95;;;;;;;17.39;52.16;95244.50;4143234;28;20065;-56
2022/05/12 06:46:27;;;;;;;11.00;7.50;;;;;;;17.43;52.04;95246.81;4142945;28;20069;-52
2022/05/12 06:48:31;;;;;;;14.07;8.20;;;;;;;17.52;52.06;95240.38;4135091;28;20054;-53
2022/05/12 06:50:33;;;;;;;13.30;8.10;;;;;;;17.67;51.74;95235.81;4141981;28;20164;-56
2022/05/12 06:52:35;;;;;;;15.50;8.10;;;;;;;17.72;51.38;95240.56;4126859;28;20069;-54
2022/05/12 06:54:38;;;;;;;10.60;8.20;;;;;;;17.83;51.19;95244.56;4125752;28;20050;-54
2022/05/12 06:56:41;;;;;;;12.88;7.63;;;;;;;17.65;50.95;95243.13;4127021;28;20100;-53
2022/05/12 06:58:43;;;;;;;10.33;7.63;;;;;;;17.63;50.90;95236.41;4127237;28;20104;-56
2022/05/12 07:00:45;;;;;;;11.40;7.95;;;;;;;17.54;51.28;95235.72;4126552;28;20491;-55
2022/05/12 07:02:47;;;;;;;16.47;7.97;;;;;;;17.67;51.51;95237.66;4131933;28;20495;-52
2022/05/12 07:04:52;;;;;;;12.45;9.02;;;;;;;17.77;51.45;95235.53;4142938;28;20719;-54
2022/05/12 07:06:53;;;;;;;11.45;7.93;;;;;;;18.08;50.98;95239.66;4142796;28;20218;-54
2022/05/12 07:08:56;;;;;;;11.80;8.85;;;;;;;18.32;50.20;95244.53;4141216;28;20050;-55
2022/05/12 07:10:58;;;;;;;12.20;9.35;;;;;;;18.54;49.68;95236.50;4142769;28;20104;-54
2022/05/12 07:12:59;;;;;;;16.73;10.15;;;;;;;18.71;49.20;95243.13;4142089;28;20054;-53
2022/05/12 07:15:01;;;;;;;15.95;9.38;;;;;;;18.81;49.51;95237.50;4142687;28;20495;-56
2022/05/12 07:17:03;;;;;;;14.65;9.88;;;;;;;18.86;49.17;95236.91;4142559;28;20126;-56
2022/05/12 07:19:05;;;;;;;14.60;10.02;;;;;;;18.98;49.04;95235.34;4142367;28;20076;-56
2022/05/12 07:28:27;;;;;;;14.50;9.43;;;;;;;19.21;48.18;95227.88;4143017;28;20107;-53
2022/05/12 07:31:00;;;;;;;13.73;9.98;;;;;;;19.39;48.22;95232.59;4142458;28;20054;-56
2022/05/12 07:32:51;;;;;;;13.95;10.52;;;;;;;19.64;47.54;95230.22;4142119;28;20050;-53
2022/05/12 07:34:52;;;;;;;16.73;10.70;;;;;;;19.73;46.54;95222.91;4142860;28;20221;-51
2022/05/12 07:36:54;;;;;;;15.82;10.20;;;;;;;19.62;46.52;95218.97;4142784;28;20050;-52
2022/05/12 07:38:56;;;;;;;21.10;10.77;;;;;;;19.61;47.16;95219.97;4140972;28;20481;-52
2022/05/12 07:40:58;;;;;;;13.00;10.30;;;;;;;19.68;46.93;95219.16;4142472;28;20498;-53
2022/05/12 07:42:59;;;;;;;15.63;10.15;;;;;;;19.77;47.20;95220.66;4142973;28;20053;-52
2022/05/12 07:45:05;;;;;;;17.17;9.98;;;;;;;19.88;46.88;95214.72;4142634;28;20072;-55
2022/05/12 07:47:09;;;;;;;15.32;9.43;;;;;;;19.83;46.93;95223.31;4142792;28;20054;-52
2022/05/12 07:49:11;;;;;;;14.25;9.30;;;;;;;19.88;46.38;95216.56;4129285;28;20054;-54
2022/05/12 07:51:21;;;;;;;13.75;10.25;;;;;;;20.06;46.22;95219.41;4126541;28;20049;-53
2022/05/12 07:53:23;;;;;;;15.70;9.70;;;;;;;20.25;45.97;95215.91;4124801;28;20058;-54
2022/05/12 07:55:24;;;;;;;12.63;9.43;;;;;;;20.44;45.66;95210.78;4126517;28;20561;-52
2022/05/12 07:57:26;;;;;;;15.90;10.10;;;;;;;20.30;45.26;95219.81;4126127;28;20067;-52
2022/05/12 07:59:29;;;;;;;16.13;10.02;;;;;;;20.38;45.51;95207.09;4126201;28;20062;-55
2022/05/12 08:01:31;;;;;;;12.70;9.38;;;;;;;20.41;44.64;95216.50;4126390;28;20108;-54
2022/05/12 08:03:33;;;;;;;16.58;9.48;;;;;;;20.55;44.71;95212.81;4136804;28;20508;-53
2022/05/12 08:05:36;;;;;;;15.37;8.70;;;;;;;20.71;44.50;95211.56;4142726;28;20574;-54
2022/05/12 08:07:38;;;;;;;16.75;9.55;;;;;;;20.89;44.41;95208.25;4142574;28;20065;-56
2022/05/12 08:09:39;;;;;;;22.05;10.90;;;;;;;20.68;44.39;95206.66;4140636;28;20058;-53
2022/05/12 08:11:41;;;;;;;19.20;10.90;;;;;;;20.46;44.74;95206.09;4142323;28;20336;-53
2022/05/12 08:13:46;;;;;;;19.55;10.85;;;;;;;20.28;44.71;95203.22;4141842;28;20057;-51
2022/05/12 08:15:50;;;;;;;13.65;10.07;;;;;;;20.33;45.18;95200.78;4142596;28;20104;-55
2022/05/12 08:17:53;;;;;;;14.57;9.10;;;;;;;20.27;44.56;95202.44;4141904;28;20050;-54
2022/05/12 08:19:55;;;;;;;17.70;9.98;;;;;;;20.25;44.88;95209.78;4142103;28;20138;-57
2022/05/12 08:21:57;;;;;;;18.67;9.55;;;;;;;20.32;44.95;95201.81;4142332;28;20529;-56
2022/05/12 08:23:58;;;;;;;15.43;9.35;;;;;;;20.48;44.55;95200.53;4141328;28;20372;-54
2022/05/12 08:26:01;;;;;;;15.52;8.00;;;;;;;20.73;44.19;95195.38;4143192;28;20053;-51
2022/05/12 08:28:03;;;;;;;9.82;7.60;;;;;;;20.48;43.50;95203.19;4144239;28;20447;-55
2022/05/12 08:30:08;;;;;;;16.50;7.00;;;;;;;20.43;43.55;95191.34;4146008;28;20423;-55
2022/05/12 08:32:10;;;;;;;10.65;7.07;;;;;;;20.59;43.48;95198.09;4145734;28;20068;-55
2022/05/12 08:34:12;;;;;;;9.98;7.07;;;;;;;20.68;42.67;95193.34;4145541;28;20116;-55
2022/05/12 08:36:14;;;;;;;12.63;7.60;;;;;;;20.78;43.21;95192.91;4145822;28;20054;-54
2022/05/12 08:38:17;;;;;;;12.77;6.88;;;;;;;20.92;43.01;95191.00;4142719;28;20656;-52
2022/05/12 08:40:49;;;;;;;10.95;7.20;;;;;;;21.16;43.26;95195.59;4145374;28;20101;-52
2022/05/12 08:42:52;;;;;;;8.65;5.30;;;;;;;21.22;40.63;95192.09;4145070;28;20546;-53
2022/05/12 08:44:55;;;;;;;6.50;4.50;;;;;;;21.44;39.05;95192.59;4142833;28;20138;-53
2022/05/12 08:46:59;;;;;;;7.22;4.30;;;;;;;21.32;38.87;95196.16;4145005;28;20061;-54
2022/05/12 08:49:10;;;;;;;9.07;4.60;;;;;;;21.43;40.10;95190.97;4143413;28;20107;-57
2022/05/12 08:51:15;;;;;;;7.45;5.22;;;;;;;21.56;39.95;95190.09;4134410;28;20062;-54
2022/05/12 08:53:20;;;;;;;9.45;4.80;;;;;;;21.80;39.34;95190.31;4142722;28;20108;-57
2022/05/12 08:55:47;;;;;;;8.32;5.40;;;;;;;21.84;39.58;95188.88;4159855;28;20580;-52
2022/05/12 08:58:05;;;;;;;12.13;5.70;;;;;;;21.77;39.59;95196.06;4159785;28;20457;-52
2022/05/12 09:00:10;;;;;;;19.17;5.28;;;;;;;21.70;39.05;95193.47;4145078;28;20112;-55
2022/05/12 09:02:36;;;;;;;8.60;4.28;;;;;;;21.66;39.26;95189.59;4145038;28;20136;-52
2022/05/12 09:04:40;;;;;;;;;;;;;;;21.76;38.88;95197.13;4145142;28;20115;-51
2022/05/12 09:07:00;;;;;;;;;;;;;;;21.72;39.09;95185.25;4145551;28;19929;-52
2022/05/12 09:09:26;;;;;;;6.40;4.13;;;;;;;21.67;38.47;95184.03;4143543;28;19925;-55
2022/05/12 09:11:39;;;;;;;5.97;3.50;;;;;;;21.90;38.32;95182.66;4143247;28;20050;-53
2022/05/12 09:13:48;;;;;;;8.73;4.28;;;;;;;21.98;38.26;95181.56;4144939;28;20540;-52
2022/05/12 09:16:14;;;;;;;10.25;4.55;;;;;;;22.20;38.35;95181.97;4145081;28;20550;-56
2022/05/12 09:18:19;;;;;;;6.03;4.03;;;;;;;22.37;38.17;95187.59;4137251;28;20104;-53
2022/05/12 09:20:21;;;;;;;7.82;3.78;;;;;;;22.30;37.62;95179.66;4143420;28;20232;-56
2022/05/12 09:22:30;;;;;;;6.38;3.80;;;;;;;22.14;37.59;95189.00;4144615;28;20097;-56
2022/05/12 09:24:32;;;;;;;6.03;3.10;;;;;;;22.20;37.20;95182.81;4143268;28;20147;-54
2022/05/12 09:26:39;;;;;;;7.57;3.70;;;;;;;22.48;37.01;95187.69;4143598;28;20098;-57
2022/05/12 09:28:41;;;;;;;8.95;3.42;;;;;;;22.61;37.51;95183.25;4143668;28;20090;-53
2022/05/12 09:30:43;;;;;;;5.05;3.42;;;;;;;22.78;36.80;95178.94;4144015;28;20045;-51
2022/05/12 09:32:57;;;;;;;6.57;4.10;;;;;;;22.86;36.81;95183.97;4144713;28;20046;-56
2022/05/12 09:35:12;;;;;;;6.28;3.88;;;;;;;22.37;36.83;95187.59;4144516;28;20116;-57
2022/05/12 09:37:19;;;;;;;5.32;3.30;;;;;;;22.42;36.74;95183.22;4144177;28;20082;-55
2022/05/12 09:39:41;;;;;;;4.47;3.50;;;;;;;22.73;36.12;95178.78;4142858;28;20475;-52
2022/05/12 09:41:44;;;;;;;6.78;3.92;;;;;;;22.78;35.80;95178.94;4144337;28;20103;-54
2022/05/12 09:43:46;;;;;;;3.95;3.33;;;;;;;22.84;35.51;95177.22;4144505;28;20569;-55
2022/05/12 09:46:06;;;;;;;8.27;3.80;;;;;;;22.92;35.04;95171.56;4144541;28;20069;-55
2022/05/12 09:48:19;;;;;;;9.15;3.60;;;;;;;22.63;35.39;95173.97;4142199;28;20912;-55
2022/05/12 09:50:24;;;;;;;7.10;4.00;;;;;;;22.79;35.23;95174.41;4144071;28;20199;-54
2022/05/12 09:52:36;;;;;;;5.40;3.58;;;;;;;22.90;35.68;95169.13;4144044;28;20054;-55
2022/05/12 09:54:41;;;;;;;8.20;4.27;;;;;;;22.65;34.87;95176.41;4142460;28;20061;-54